sensor_id;sensor_type;location;lat;lon;timestamp;pressure;altitude;pressure_sealevel;temperature;humidity
57114;BME280;42994;51.606;9.988;2023-02-17T00:01:46;99395.75;;;5.88;100.00
57114;BME280;42994;51.606;9.988;2023-02-17T00:04:14;99401.06;;;5.88;100.00
57114;BME280;42994;51.606;9.988;2023-02-17T00:06:40;99394.53;;;5.83;100.00
57114;BME280;42994;51.606;9.988;2023-02-17T00:09:07;99391.00;;;5.82;100.00
57114;BME280;42994;51.606;9.988;2023-02-17T00:11:34;99383.03;;;5.82;100.00
57114;BME280;42994;51.606;9.988;2023-02-17T00:14:00;99380.06;;;5.85;100.00
57114;BME280;42994;51.606;9.988;2023-02-17T00:16:27;99376.72;;;5.83;100.00
57114;BME280;42994;51.606;9.988;2023-02-17T00:18:56;99376.88;;;5.82;100.00
57114;BME280;42994;51.606;9.988;2023-02-17T00:21:27;99377.56;;;5.84;100.00
57114;BME280;42994;51.606;9.988;2023-02-17T00:23:55;99374.91;;;5.84;100.00
57114;BME280;42994;51.606;9.988;2023-02-17T00:26:22;99377.72;;;5.82;100.00
57114;BME280;42994;51.606;9.988;2023-02-17T00:28:49;99376.06;;;5.81;100.00
57114;BME280;42994;51.606;9.988;2023-02-17T00:31:17;99370.06;;;5.79;100.00
57114;BME280;42994;51.606;9.988;2023-02-17T00:33:45;99375.53;;;5.77;100.00
57114;BME280;42994;51.606;9.988;2023-02-17T00:36:14;99364.19;;;5.75;100.00
57114;BME280;42994;51.606;9.988;2023-02-17T00:38:43;99356.06;;;5.77;100.00
57114;BME280;42994;51.606;9.988;2023-02-17T00:41:10;99348.91;;;5.77;100.00
57114;BME280;42994;51.606;9.988;2023-02-17T00:43:37;99350.06;;;5.75;100.00
57114;BME280;42994;51.606;9.988;2023-02-17T00:46:04;99345.56;;;5.75;100.00
57114;BME280;42994;51.606;9.988;2023-02-17T00:48:31;99338.03;;;5.71;100.00
57114;BME280;42994;51.606;9.988;2023-02-17T00:50:58;99332.72;;;5.71;100.00
57114;BME280;42994;51.606;9.988;2023-02-17T00:53:26;99333.72;;;5.70;100.00
57114;BME280;42994;51.606;9.988;2023-02-17T00:55:54;99339.03;;;5.70;100.00
57114;BME280;42994;51.606;9.988;2023-02-17T00:58:21;99342.53;;;5.70;100.00
57114;BME280;42994;51.606;9.988;2023-02-17T01:00:48;99333.41;;;5.73;100.00
57114;BME280;42994;51.606;9.988;2023-02-17T01:03:16;99322.75;;;5.73;100.00
57114;BME280;42994;51.606;9.988;2023-02-17T01:05:44;99310.75;;;5.69;100.00
57114;BME280;42994;51.606;9.988;2023-02-17T01:08:14;99307.13;;;5.70;100.00
57114;BME280;42994;51.606;9.988;2023-02-17T01:10:43;99297.16;;;5.72;100.00
57114;BME280;42994;51.606;9.988;2023-02-17T01:13:13;99296.63;;;5.68;100.00
57114;BME280;42994;51.606;9.988;2023-02-17T01:15:42;99290.66;;;5.66;100.00
57114;BME280;42994;51.606;9.988;2023-02-17T01:18:12;99290.31;;;5.69;100.00
57114;BME280;42994;51.606;9.988;2023-02-17T01:20:39;99286.81;;;5.69;100.00
57114;BME280;42994;51.606;9.988;2023-02-17T01:23:07;99276.88;;;5.71;100.00
57114;BME280;42994;51.606;9.988;2023-02-17T01:25:35;99270.34;;;5.65;100.00
57114;BME280;42994;51.606;9.988;2023-02-17T01:28:02;99265.84;;;5.66;100.00
57114;BME280;42994;51.606;9.988;2023-02-17T01:30:30;99283.50;;;5.67;100.00
57114;BME280;42994;51.606;9.988;2023-02-17T01:32:57;99272.03;;;5.66;100.00
57114;BME280;42994;51.606;9.988;2023-02-17T01:35:24;99267.69;;;5.65;100.00
57114;BME280;42994;51.606;9.988;2023-02-17T01:37:50;99267.84;;;5.64;100.00
57114;BME280;42994;51.606;9.988;2023-02-17T01:40:17;99267.09;;;5.71;100.00
57114;BME280;42994;51.606;9.988;2023-02-17T01:42:44;99257.44;;;5.70;100.00
57114;BME280;42994;51.606;9.988;2023-02-17T01:45:44;99258.63;;;5.76;100.00
57114;BME280;42994;51.606;9.988;2023-02-17T01:48:13;99259.09;;;5.71;100.00
57114;BME280;42994;51.606;9.988;2023-02-17T01:50:43;99251.94;;;5.72;100.00
57114;BME280;42994;51.606;9.988;2023-02-17T01:53:15;99245.03;;;5.79;100.00
57114;BME280;42994;51.606;9.988;2023-02-17T01:55:45;99249.72;;;5.85;100.00
57114;BME280;42994;51.606;9.988;2023-02-17T01:58:15;99242.22;;;5.81;100.00
57114;BME280;42994;51.606;9.988;2023-02-17T02:00:44;99245.03;;;5.79;100.00
57114;BME280;42994;51.606;9.988;2023-02-17T02:03:12;99238.56;;;5.82;100.00
57114;BME280;42994;51.606;9.988;2023-02-17T02:05:40;99228.06;;;5.80;100.00
57114;BME280;42994;51.606;9.988;2023-02-17T02:08:08;99232.94;;;5.85;100.00
57114;BME280;42994;51.606;9.988;2023-02-17T02:10:36;99225.25;;;5.82;100.00
57114;BME280;42994;51.606;9.988;2023-02-17T02:13:04;99227.47;;;5.86;100.00
57114;BME280;42994;51.606;9.988;2023-02-17T02:15:36;99220.16;;;5.88;100.00
57114;BME280;42994;51.606;9.988;2023-02-17T02:18:17;99222.81;;;5.88;100.00
57114;BME280;42994;51.606;9.988;2023-02-17T02:24:13;99196.88;;;5.90;100.00
57114;BME280;42994;51.606;9.988;2023-02-17T02:27:05;99206.63;;;6.00;100.00
57114;BME280;42994;51.606;9.988;2023-02-17T02:29:56;99194.03;;;6.10;100.00
57114;BME280;42994;51.606;9.988;2023-02-17T02:32:38;99190.84;;;6.06;100.00
57114;BME280;42994;51.606;9.988;2023-02-17T02:35:12;99190.69;;;6.08;100.00
57114;BME280;42994;51.606;9.988;2023-02-17T02:37:45;99186.34;;;6.07;100.00
57114;BME280;42994;51.606;9.988;2023-02-17T02:40:15;99171.22;;;6.07;100.00
57114;BME280;42994;51.606;9.988;2023-02-17T02:42:45;99160.22;;;6.02;100.00
57114;BME280;42994;51.606;9.988;2023-02-17T02:45:12;99164.56;;;6.03;100.00
57114;BME280;42994;51.606;9.988;2023-02-17T02:47:45;99158.78;;;6.08;100.00
57114;BME280;42994;51.606;9.988;2023-02-17T02:50:19;99158.06;;;6.06;100.00
57114;BME280;42994;51.606;9.988;2023-02-17T02:52:55;99151.47;;;6.10;100.00
57114;BME280;42994;51.606;9.988;2023-02-17T02:55:33;99143.47;;;6.10;100.00
57114;BME280;42994;51.606;9.988;2023-02-17T02:58:06;99144.09;;;6.04;100.00
57114;BME280;42994;51.606;9.988;2023-02-17T03:00:44;99138.97;;;6.10;100.00
57114;BME280;42994;51.606;9.988;2023-02-17T03:03:23;99137.50;;;6.16;100.00
57114;BME280;42994;51.606;9.988;2023-02-17T03:05:57;99134.16;;;6.14;100.00
57114;BME280;42994;51.606;9.988;2023-02-17T03:08:27;99137.13;;;6.11;100.00
57114;BME280;42994;51.606;9.988;2023-02-17T03:10:57;99129.66;;;6.14;100.00
57114;BME280;42994;51.606;9.988;2023-02-17T03:13:23;99133.00;;;6.16;100.00
57114;BME280;42994;51.606;9.988;2023-02-17T03:15:51;99135.31;;;6.11;100.00
57114;BME280;42994;51.606;9.988;2023-02-17T03:18:18;99140.97;;;6.16;100.00
57114;BME280;42994;51.606;9.988;2023-02-17T03:20:50;99138.84;;;6.20;100.00
57114;BME280;42994;51.606;9.988;2023-02-17T03:23:18;99133.22;;;6.31;100.00
57114;BME280;42994;51.606;9.988;2023-02-17T03:25:45;99134.22;;;6.30;100.00
57114;BME280;42994;51.606;9.988;2023-02-17T03:28:12;99137.03;;;6.29;100.00
57114;BME280;42994;51.606;9.988;2023-02-17T03:30:40;99127.38;;;6.20;100.00
57114;BME280;42994;51.606;9.988;2023-02-17T03:33:07;99121.59;;;6.32;100.00
57114;BME280;42994;51.606;9.988;2023-02-17T03:35:33;99112.94;;;6.30;100.00
57114;BME280;42994;51.606;9.988;2023-02-17T03:38:02;99108.25;;;6.24;100.00
57114;BME280;42994;51.606;9.988;2023-02-17T03:40:29;99104.91;;;6.22;100.00
57114;BME280;42994;51.606;9.988;2023-02-17T03:42:56;99098.28;;;6.26;100.00
57114;BME280;42994;51.606;9.988;2023-02-17T03:45:22;99092.78;;;6.28;100.00
57114;BME280;42994;51.606;9.988;2023-02-17T03:47:49;99095.28;;;6.29;100.00
57114;BME280;42994;51.606;9.988;2023-02-17T03:50:16;99094.81;;;6.34;100.00
57114;BME280;42994;51.606;9.988;2023-02-17T03:52:43;99089.63;;;6.32;100.00
57114;BME280;42994;51.606;9.988;2023-02-17T03:55:11;99087.28;;;6.29;100.00
57114;BME280;42994;51.606;9.988;2023-02-17T03:57:38;99091.63;;;6.30;100.00
57114;BME280;42994;51.606;9.988;2023-02-17T04:00:06;99089.16;;;6.37;100.00
57114;BME280;42994;51.606;9.988;2023-02-17T04:02:38;99096.13;;;6.30;100.00
57114;BME280;42994;51.606;9.988;2023-02-17T04:05:06;99090.81;;;6.38;100.00
57114;BME280;42994;51.606;9.988;2023-02-17T04:07:32;99085.84;;;6.43;100.00
57114;BME280;42994;51.606;9.988;2023-02-17T04:09:59;99079.50;;;6.44;100.00
57114;BME280;42994;51.606;9.988;2023-02-17T04:12:27;99071.50;;;6.44;100.00
57114;BME280;42994;51.606;9.988;2023-02-17T04:14:53;99067.69;;;6.39;100.00
57114;BME280;42994;51.606;9.988;2023-02-17T04:17:20;99062.88;;;6.42;100.00
57114;BME280;42994;51.606;9.988;2023-02-17T04:19:46;99067.72;;;6.47;100.00
57114;BME280;42994;51.606;9.988;2023-02-17T04:22:13;99064.84;;;6.40;100.00
57114;BME280;42994;51.606;9.988;2023-02-17T04:24:40;99063.88;;;6.49;100.00
57114;BME280;42994;51.606;9.988;2023-02-17T04:27:06;99069.22;;;6.58;100.00
57114;BME280;42994;51.606;9.988;2023-02-17T04:29:34;99067.72;;;6.55;100.00
57114;BME280;42994;51.606;9.988;2023-02-17T04:32:01;99068.53;;;6.47;100.00
57114;BME280;42994;51.606;9.988;2023-02-17T04:34:28;99064.53;;;6.51;100.00
57114;BME280;42994;51.606;9.988;2023-02-17T04:36:54;99072.03;;;6.48;100.00
57114;BME280;42994;51.606;9.988;2023-02-17T04:39:21;99073.84;;;6.47;100.00
57114;BME280;42994;51.606;9.988;2023-02-17T04:41:47;99070.38;;;6.55;100.00
57114;BME280;42994;51.606;9.988;2023-02-17T04:44:15;99069.22;;;6.58;100.00
57114;BME280;42994;51.606;9.988;2023-02-17T04:46:43;99072.72;;;6.58;100.00
57114;BME280;42994;51.606;9.988;2023-02-17T04:49:09;99083.38;;;6.58;100.00
57114;BME280;42994;51.606;9.988;2023-02-17T04:51:36;99067.41;;;6.66;100.00
57114;BME280;42994;51.606;9.988;2023-02-17T04:54:03;99075.06;;;6.69;100.00
57114;BME280;42994;51.606;9.988;2023-02-17T04:56:29;99082.22;;;6.69;100.00
57114;BME280;42994;51.606;9.988;2023-02-17T04:58:56;99081.72;;;6.65;100.00
57114;BME280;42994;51.606;9.988;2023-02-17T05:01:23;99081.38;;;6.60;100.00
57114;BME280;42994;51.606;9.988;2023-02-17T05:03:51;99081.06;;;6.63;100.00
57114;BME280;42994;51.606;9.988;2023-02-17T05:06:17;99079.38;;;6.62;100.00
57114;BME280;42994;51.606;9.988;2023-02-17T05:08:44;99067.06;;;6.61;100.00
57114;BME280;42994;51.606;9.988;2023-02-17T05:11:12;99065.53;;;6.59;100.00
57114;BME280;42994;51.606;9.988;2023-02-17T05:13:39;99068.41;;;6.57;100.00
57114;BME280;42994;51.606;9.988;2023-02-17T05:16:05;99063.41;;;6.70;100.00
57114;BME280;42994;51.606;9.988;2023-02-17T05:18:32;99061.41;;;6.81;100.00
57114;BME280;42994;51.606;9.988;2023-02-17T05:21:00;99069.09;;;6.76;100.00
57114;BME280;42994;51.606;9.988;2023-02-17T05:23:29;99073.75;;;6.73;100.00
57114;BME280;42994;51.606;9.988;2023-02-17T05:25:56;99086.06;;;6.66;100.00
57114;BME280;42994;51.606;9.988;2023-02-17T05:28:23;99081.53;;;6.75;100.00
57114;BME280;42994;51.606;9.988;2023-02-17T05:30:49;99081.22;;;6.78;100.00
57114;BME280;42994;51.606;9.988;2023-02-17T05:33:16;99077.38;;;6.81;100.00
57114;BME280;42994;51.606;9.988;2023-02-17T05:35:43;99066.22;;;6.77;100.00
57114;BME280;42994;51.606;9.988;2023-02-17T05:38:11;99075.41;;;6.83;100.00
57114;BME280;42994;51.606;9.988;2023-02-17T05:40:37;99068.41;;;6.82;100.00
57114;BME280;42994;51.606;9.988;2023-02-17T05:43:04;99068.06;;;6.77;100.00
57114;BME280;42994;51.606;9.988;2023-02-17T05:45:30;99052.44;;;6.90;100.00
57114;BME280;42994;51.606;9.988;2023-02-17T05:47:57;99048.25;;;6.87;100.00
57114;BME280;42994;51.606;9.988;2023-02-17T05:50:23;99052.44;;;6.90;100.00
57114;BME280;42994;51.606;9.988;2023-02-17T05:52:50;99044.78;;;6.87;100.00
57114;BME280;42994;51.606;9.988;2023-02-17T05:55:18;99056.44;;;6.78;100.00
57114;BME280;42994;51.606;9.988;2023-02-17T05:57:46;99043.25;;;6.84;100.00
57114;BME280;42994;51.606;9.988;2023-02-17T06:00:14;99045.59;;;6.87;100.00
57114;BME280;42994;51.606;9.988;2023-02-17T06:02:40;99043.09;;;6.78;100.00
57114;BME280;42994;51.606;9.988;2023-02-17T06:05:07;99044.94;;;6.85;100.00
57114;BME280;42994;51.606;9.988;2023-02-17T06:07:34;99041.41;;;6.93;100.00
57114;BME280;42994;51.606;9.988;2023-02-17T06:10:01;99040.28;;;6.96;100.00
57114;BME280;42994;51.606;9.988;2023-02-17T06:12:29;99045.41;;;6.97;100.00
57114;BME280;42994;51.606;9.988;2023-02-17T06:14:55;99031.78;;;6.92;100.00
57114;BME280;42994;51.606;9.988;2023-02-17T06:17:22;99043.25;;;6.92;100.00
57114;BME280;42994;51.606;9.988;2023-02-17T06:19:49;99037.78;;;6.94;100.00
57114;BME280;42994;51.606;9.988;2023-02-17T06:22:16;99047.59;;;7.02;100.00
57114;BME280;42994;51.606;9.988;2023-02-17T06:24:43;99039.78;;;6.92;100.00
57114;BME280;42994;51.606;9.988;2023-02-17T06:27:09;99042.44;;;6.92;100.00
57114;BME280;42994;51.606;9.988;2023-02-17T06:29:38;99042.09;;;6.95;100.00
57114;BME280;42994;51.606;9.988;2023-02-17T06:32:04;99023.44;;;6.95;100.00
57114;BME280;42994;51.606;9.988;2023-02-17T06:34:31;99039.28;;;6.88;100.00
57114;BME280;42994;51.606;9.988;2023-02-17T06:36:58;99040.56;;;7.01;100.00
57114;BME280;42994;51.606;9.988;2023-02-17T06:39:24;99030.94;;;6.91;100.00
57114;BME280;42994;51.606;9.988;2023-02-17T06:41:51;99038.91;;;6.91;100.00
57114;BME280;42994;51.606;9.988;2023-02-17T06:44:18;99039.25;;;6.97;100.00
57114;BME280;42994;51.606;9.988;2023-02-17T06:46:46;99040.44;;;6.94;100.00
57114;BME280;42994;51.606;9.988;2023-02-17T06:49:13;99042.44;;;6.92;100.00
57114;BME280;42994;51.606;9.988;2023-02-17T06:51:40;99040.91;;;6.89;100.00
57114;BME280;42994;51.606;9.988;2023-02-17T06:54:06;99033.59;;;7.00;100.00
57114;BME280;42994;51.606;9.988;2023-02-17T06:56:33;99030.28;;;6.98;100.00
57114;BME280;42994;51.606;9.988;2023-02-17T06:59:01;99021.09;;;7.00;100.00
57114;BME280;42994;51.606;9.988;2023-02-17T07:01:27;99025.09;;;7.04;100.00
57114;BME280;42994;51.606;9.988;2023-02-17T07:03:55;99021.59;;;7.04;100.00
57114;BME280;42994;51.606;9.988;2023-02-17T07:06:23;99040.25;;;7.04;100.00
57114;BME280;42994;51.606;9.988;2023-02-17T07:08:50;99028.09;;;7.01;100.00
57114;BME280;42994;51.606;9.988;2023-02-17T07:11:17;99024.75;;;7.07;100.00
57114;BME280;42994;51.606;9.988;2023-02-17T07:13:44;99008.78;;;6.99;100.00
57114;BME280;42994;51.606;9.988;2023-02-17T07:16:12;99006.78;;;7.01;100.00
57114;BME280;42994;51.606;9.988;2023-02-17T07:18:39;98994.78;;;7.05;100.00
57114;BME280;42994;51.606;9.988;2023-02-17T07:21:07;99009.44;;;7.01;100.00
57114;BME280;42994;51.606;9.988;2023-02-17T07:23:34;99006.44;;;7.04;100.00
57114;BME280;42994;51.606;9.988;2023-02-17T07:26:01;98998.09;;;7.07;100.00
57114;BME280;42994;51.606;9.988;2023-02-17T07:28:28;99016.25;;;7.12;100.00
57114;BME280;42994;51.606;9.988;2023-02-17T07:30:55;99001.25;;;7.11;100.00
57114;BME280;42994;51.606;9.988;2023-02-17T07:33:22;99003.22;;;7.25;100.00
57114;BME280;42994;51.606;9.988;2023-02-17T07:35:48;99008.72;;;7.24;100.00
57114;BME280;42994;51.606;9.988;2023-02-17T07:38:16;99015.25;;;7.21;100.00
57114;BME280;42994;51.606;9.988;2023-02-17T07:40:43;99014.72;;;7.34;100.00
57114;BME280;42994;51.606;9.988;2023-02-17T07:43:09;99013.69;;;7.35;100.00
57114;BME280;42994;51.606;9.988;2023-02-17T07:45:37;99021.03;;;7.33;100.00
57114;BME280;42994;51.606;9.988;2023-02-17T07:48:04;99023.38;;;7.36;100.00
57114;BME280;42994;51.606;9.988;2023-02-17T07:50:30;99025.00;;;7.45;100.00
57114;BME280;42994;51.606;9.988;2023-02-17T07:52:57;99039.16;;;7.46;100.00
57114;BME280;42994;51.606;9.988;2023-02-17T07:55:25;99027.34;;;7.48;100.00
57114;BME280;42994;51.606;9.988;2023-02-17T07:57:52;99021.81;;;7.58;100.00
57114;BME280;42994;51.606;9.988;2023-02-17T08:00:19;99035.97;;;7.59;100.00
57114;BME280;42994;51.606;9.988;2023-02-17T08:02:45;99029.91;;;7.73;100.00
57114;BME280;42994;51.606;9.988;2023-02-17T08:05:12;99031.94;;;7.71;100.00
57114;BME280;42994;51.606;9.988;2023-02-17T08:07:39;99045.09;;;7.73;100.00
57114;BME280;42994;51.606;9.988;2023-02-17T08:10:06;99027.59;;;7.70;100.00
57114;BME280;42994;51.606;9.988;2023-02-17T08:12:52;99027.06;;;7.75;100.00
57114;BME280;42994;51.606;9.988;2023-02-17T08:15:36;99021.41;;;7.78;100.00
57114;BME280;42994;51.606;9.988;2023-02-17T08:18:03;99027.06;;;7.75;100.00
57114;BME280;42994;51.606;9.988;2023-02-17T08:20:30;99006.22;;;7.78;100.00
57114;BME280;42994;51.606;9.988;2023-02-17T08:22:57;99009.38;;;7.82;100.00
57114;BME280;42994;51.606;9.988;2023-02-17T08:25:25;99006.69;;;7.82;100.00
57114;BME280;42994;51.606;9.988;2023-02-17T08:27:53;99019.81;;;7.92;100.00
57114;BME280;42994;51.606;9.988;2023-02-17T08:30:20;99009.69;;;7.87;100.00
57114;BME280;42994;51.606;9.988;2023-02-17T08:32:46;99005.88;;;7.81;100.00
57114;BME280;42994;51.606;9.988;2023-02-17T08:35:14;98997.91;;;7.73;100.00
57114;BME280;42994;51.606;9.988;2023-02-17T08:37:42;98994.72;;;7.78;100.00
57114;BME280;42994;51.606;9.988;2023-02-17T08:40:09;98987.47;;;7.86;100.00
57114;BME280;42994;51.606;9.988;2023-02-17T08:42:36;98979.09;;;7.98;100.00
57114;BME280;42994;51.606;9.988;2023-02-17T08:45:05;98970.56;;;8.02;100.00
57114;BME280;42994;51.606;9.988;2023-02-17T08:47:31;98975.66;;;8.12;100.00
57114;BME280;42994;51.606;9.988;2023-02-17T08:50:01;98980.16;;;8.12;100.00
57114;BME280;42994;51.606;9.988;2023-02-17T08:52:28;98974.97;;;8.18;100.00
57114;BME280;42994;51.606;9.988;2023-02-17T08:54:55;98967.59;;;8.20;100.00
57114;BME280;42994;51.606;9.988;2023-02-17T08:57:22;98986.94;;;8.22;100.00
57114;BME280;42994;51.606;9.988;2023-02-17T08:59:48;98975.06;;;8.25;100.00
57114;BME280;42994;51.606;9.988;2023-02-17T09:02:16;98964.66;;;8.38;100.00
57114;BME280;42994;51.606;9.988;2023-02-17T09:04:43;98960.28;;;8.45;100.00
57114;BME280;42994;51.606;9.988;2023-02-17T09:07:11;98969.47;;;8.43;100.00
57114;BME280;42994;51.606;9.988;2023-02-17T09:09:39;98976.13;;;8.47;100.00
57114;BME280;42994;51.606;9.988;2023-02-17T09:12:06;98972.09;;;8.51;100.00
57114;BME280;42994;51.606;9.988;2023-02-17T09:14:33;98982.94;;;8.50;100.00
57114;BME280;42994;51.606;9.988;2023-02-17T09:17:00;98985.28;;;8.53;100.00
57114;BME280;42994;51.606;9.988;2023-02-17T09:19:28;98979.38;;;8.57;100.00
57114;BME280;42994;51.606;9.988;2023-02-17T09:21:54;98978.56;;;8.57;100.00
57114;BME280;42994;51.606;9.988;2023-02-17T09:24:21;99003.19;;;8.67;100.00
57114;BME280;42994;51.606;9.988;2023-02-17T09:26:48;98998.19;;;8.64;100.00
57114;BME280;42994;51.606;9.988;2023-02-17T09:29:14;99003.00;;;8.69;100.00
57114;BME280;42994;51.606;9.988;2023-02-17T09:31:41;99002.00;;;8.70;100.00
57114;BME280;42994;51.606;9.988;2023-02-17T09:34:09;98994.31;;;8.66;100.00
57114;BME280;42994;51.606;9.988;2023-02-17T09:36:39;98985.31;;;8.68;100.00
57114;BME280;42994;51.606;9.988;2023-02-17T09:39:07;98984.09;;;8.70;100.00
57114;BME280;42994;51.606;9.988;2023-02-17T09:41:37;98972.59;;;8.70;100.00
57114;BME280;42994;51.606;9.988;2023-02-17T09:44:05;98974.28;;;8.71;100.00
57114;BME280;42994;51.606;9.988;2023-02-17T09:46:35;98969.56;;;8.73;100.00
57114;BME280;42994;51.606;9.988;2023-02-17T09:49:09;98967.91;;;8.72;100.00
57114;BME280;42994;51.606;9.988;2023-02-17T09:51:43;98964.03;;;8.74;100.00
57114;BME280;42994;51.606;9.988;2023-02-17T09:54:15;98966.53;;;8.76;100.00
57114;BME280;42994;51.606;9.988;2023-02-17T09:56:45;98954.66;;;8.78;100.00
57114;BME280;42994;51.606;9.988;2023-02-17T09:59:15;98965.81;;;8.82;100.00
57114;BME280;42994;51.606;9.988;2023-02-17T10:01:46;98975.31;;;8.84;100.00
57114;BME280;42994;51.606;9.988;2023-02-17T10:04:18;98959.25;;;8.84;100.00
57114;BME280;42994;51.606;9.988;2023-02-17T10:06:49;98976.41;;;8.90;100.00
57114;BME280;42994;51.606;9.988;2023-02-17T10:09:19;98967.41;;;8.91;100.00
57114;BME280;42994;51.606;9.988;2023-02-17T10:11:50;98959.19;;;8.93;100.00
57114;BME280;42994;51.606;9.988;2023-02-17T10:14:24;98963.34;;;8.95;100.00
57114;BME280;42994;51.606;9.988;2023-02-17T10:16:56;98945.28;;;8.97;100.00
57114;BME280;42994;51.606;9.988;2023-02-17T10:19:28;98940.22;;;9.02;100.00
57114;BME280;42994;51.606;9.988;2023-02-17T10:22:03;98957.72;;;9.05;100.00
57114;BME280;42994;51.606;9.988;2023-02-17T10:24:31;98946.47;;;9.10;100.00
57114;BME280;42994;51.606;9.988;2023-02-17T10:27:19;98951.84;;;9.10;100.00
57114;BME280;42994;51.606;9.988;2023-02-17T10:29:58;98956.81;;;9.13;100.00
57114;BME280;42994;51.606;9.988;2023-02-17T10:32:27;98964.63;;;9.14;100.00
57114;BME280;42994;51.606;9.988;2023-02-17T10:35:11;98955.50;;;9.23;100.00
57114;BME280;42994;51.606;9.988;2023-02-17T10:37:44;98957.53;;;9.21;100.00
57114;BME280;42994;51.606;9.988;2023-02-17T10:40:15;98966.66;;;9.27;100.00
57114;BME280;42994;51.606;9.988;2023-02-17T10:42:42;98962.63;;;9.31;100.00
57114;BME280;42994;51.606;9.988;2023-02-17T10:45:14;98965.66;;;9.28;100.00
57114;BME280;42994;51.606;9.988;2023-02-17T10:47:44;98971.00;;;9.28;100.00
57114;BME280;42994;51.606;9.988;2023-02-17T10:50:18;98969.72;;;9.24;100.00
57114;BME280;42994;51.606;9.988;2023-02-17T10:52:47;98962.00;;;9.29;100.00
57114;BME280;42994;51.606;9.988;2023-02-17T10:55:19;98950.63;;;9.42;100.00
57114;BME280;42994;51.606;9.988;2023-02-17T10:57:49;98936.59;;;9.55;100.00
57114;BME280;42994;51.606;9.988;2023-02-17T11:00:17;98962.41;;;9.62;100.00
57114;BME280;42994;51.606;9.988;2023-02-17T11:02:45;98949.59;;;9.58;100.00
57114;BME280;42994;51.606;9.988;2023-02-17T11:05:21;98943.41;;;9.57;100.00
57114;BME280;42994;51.606;9.988;2023-02-17T11:07:53;98954.09;;;9.72;100.00
57114;BME280;42994;51.606;9.988;2023-02-17T11:10:23;98937.03;;;9.73;100.00
57114;BME280;42994;51.606;9.988;2023-02-17T11:12:51;98931.53;;;9.81;100.00
57114;BME280;42994;51.606;9.988;2023-02-17T11:15:24;98917.03;;;9.91;100.00
57114;BME280;42994;51.606;9.988;2023-02-17T11:17:52;98907.53;;;9.88;100.00
57114;BME280;42994;51.606;9.988;2023-02-17T11:20:34;98905.13;;;9.93;100.00
57114;BME280;42994;51.606;9.988;2023-02-17T11:23:19;98916.31;;;10.04;100.00
57114;BME280;42994;51.606;9.988;2023-02-17T11:25:58;98910.59;;;10.07;100.00
57114;BME280;42994;51.606;9.988;2023-02-17T11:28:26;98932.47;;;10.10;100.00
57114;BME280;42994;51.606;9.988;2023-02-17T11:30:55;98927.19;;;10.17;100.00
57114;BME280;42994;51.606;9.988;2023-02-17T11:33:28;98922.50;;;10.26;100.00
57114;BME280;42994;51.606;9.988;2023-02-17T11:35:56;98914.88;;;10.23;100.00
57114;BME280;42994;51.606;9.988;2023-02-17T11:38:26;98913.38;;;10.35;100.00
57114;BME280;42994;51.606;9.988;2023-02-17T11:40:55;98907.38;;;10.33;100.00
57114;BME280;42994;51.606;9.988;2023-02-17T11:43:22;98915.47;;;10.39;100.00
57114;BME280;42994;51.606;9.988;2023-02-17T11:45:57;98931.66;;;10.53;100.00
57114;BME280;42994;51.606;9.988;2023-02-17T11:51:44;98941.88;;;10.64;100.00
57114;BME280;42994;51.606;9.988;2023-02-17T11:54:20;98941.63;;;10.59;100.00
57114;BME280;42994;51.606;9.988;2023-02-17T11:56:58;98940.84;;;10.65;100.00
57114;BME280;42994;51.606;9.988;2023-02-17T11:59:49;98937.16;;;10.66;100.00
57114;BME280;42994;51.606;9.988;2023-02-17T12:02:37;98942.03;;;10.84;100.00
57114;BME280;42994;51.606;9.988;2023-02-17T12:05:16;98938.06;;;10.80;100.00
57114;BME280;42994;51.606;9.988;2023-02-17T12:07:52;98928.56;;;10.77;100.00
57114;BME280;42994;51.606;9.988;2023-02-17T12:10:33;98935.13;;;10.75;100.00
57114;BME280;42994;51.606;9.988;2023-02-17T12:13:23;98930.38;;;10.70;100.00
57114;BME280;42994;51.606;9.988;2023-02-17T12:16:05;98917.94;;;10.91;100.00
57114;BME280;42994;51.606;9.988;2023-02-17T12:18:46;98915.22;;;10.84;100.00
57114;BME280;42994;51.606;9.988;2023-02-17T12:21:19;98903.06;;;10.88;100.00
57114;BME280;42994;51.606;9.988;2023-02-17T12:24:00;98890.66;;;10.87;100.00
57114;BME280;42994;51.606;9.988;2023-02-17T12:26:36;98887.88;;;11.02;100.00
57114;BME280;42994;51.606;9.988;2023-02-17T12:29:14;98875.75;;;11.13;100.00
57114;BME280;42994;51.606;9.988;2023-02-17T12:31:58;98866.84;;;11.06;100.00
57114;BME280;42994;51.606;9.988;2023-02-17T12:34:29;98866.50;;;11.15;100.00
57114;BME280;42994;51.606;9.988;2023-02-17T12:36:58;98863.22;;;11.20;100.00
57114;BME280;42994;51.606;9.988;2023-02-17T12:39:29;98866.38;;;11.37;100.00
57114;BME280;42994;51.606;9.988;2023-02-17T12:42:01;98865.75;;;11.35;100.00
57114;BME280;42994;51.606;9.988;2023-02-17T12:44:32;98861.66;;;11.46;100.00
57114;BME280;42994;51.606;9.988;2023-02-17T12:47:03;98853.44;;;11.54;100.00
57114;BME280;42994;51.606;9.988;2023-02-17T12:49:35;98842.69;;;11.61;100.00
57114;BME280;42994;51.606;9.988;2023-02-17T12:52:07;98845.59;;;11.52;100.00
57114;BME280;42994;51.606;9.988;2023-02-17T12:54:40;98860.44;;;11.55;100.00
57114;BME280;42994;51.606;9.988;2023-02-17T12:57:16;98860.69;;;11.73;100.00
57114;BME280;42994;51.606;9.988;2023-02-17T12:59:45;98861.53;;;11.81;100.00
57114;BME280;42994;51.606;9.988;2023-02-17T13:02:14;98850.38;;;11.70;100.00
57114;BME280;42994;51.606;9.988;2023-02-17T13:04:42;98843.56;;;11.74;100.00
57114;BME280;42994;51.606;9.988;2023-02-17T13:07:19;98844.41;;;11.82;100.00
57114;BME280;42994;51.606;9.988;2023-02-17T13:09:49;98855.19;;;11.95;100.00
57114;BME280;42994;51.606;9.988;2023-02-17T13:12:31;98830.75;;;11.77;100.00
57114;BME280;42994;51.606;9.988;2023-02-17T13:15:00;98853.16;;;11.90;100.00
57114;BME280;42994;51.606;9.988;2023-02-17T13:17:29;98847.94;;;11.89;100.00